Time;durP1;ratioP1;P1;durP2;ratioP2;P2;SDS_P1;SDS_P2;PMS_P1;PMS_P2;Temp;Humidity;BMP_temperature;BMP_pressure;BME280_temperature;BME280_humidity;BME280_pressure;Samples;Min_cycle;Max_cycle;Signal;HPM_P1;HPM_P2
2022/04/29 00:00:31;;;;;;;5.07;4.30;;;20.20;44.70;21.40;102006.00;;;;4987043;28;20197;-48
2022/04/29 00:02:56;;;;;;;6.53;5.07;;;20.20;45.40;21.40;102008.00;;;;4987213;28;20196;-46
2022/04/29 00:05:24;;;;;;;5.53;4.37;;;20.10;44.90;21.30;102000.00;;;;4987050;28;20200;-45
2022/04/29 00:07:50;;;;;;;5.30;4.53;;;20.10;45.40;21.30;102003.00;;;;4986820;28;20187;-46
2022/04/29 00:10:16;;;;;;;5.63;4.30;;;20.10;45.20;21.40;102011.00;;;;5002940;28;20738;-46
2022/04/29 00:12:43;;;;;;;4.70;4.20;;;20.10;45.20;21.30;102011.00;;;;5004994;28;20234;-46
2022/04/29 00:15:12;;;;;;;6.87;4.97;;;20.10;45.40;21.30;102011.00;;;;5006916;28;20180;-46
2022/04/29 00:17:38;;;;;;;4.93;4.53;;;20.00;45.20;21.30;102008.00;;;;5006536;28;20893;-46
2022/04/29 00:20:05;;;;;;;6.23;5.13;;;20.10;45.30;21.30;102001.00;;;;5021513;28;20179;-46
2022/04/29 00:22:31;;;;;;;5.30;4.40;;;20.00;45.20;21.30;102011.00;;;;5006201;28;20167;-46
2022/04/29 00:24:57;;;;;;;6.50;4.97;;;20.00;45.10;21.20;102012.00;;;;5006416;28;20234;-46
2022/04/29 00:27:22;;;;;;;5.73;5.03;;;20.00;45.10;21.20;102007.00;;;;5006259;28;20660;-46
2022/04/29 00:29:48;;;;;;;7.10;4.80;;;20.00;45.10;21.20;102019.00;;;;5006660;28;20183;-46
2022/04/29 00:32:17;;;;;;;5.20;4.70;;;20.00;44.70;21.20;102018.00;;;;5006017;28;20644;-46
2022/04/29 00:34:42;;;;;;;5.90;5.30;;;19.90;44.40;21.20;102033.00;;;;5005765;28;20690;-46
2022/04/29 00:37:10;;;;;;;6.07;4.93;;;19.90;44.70;21.20;102027.00;;;;5004351;28;20172;-46
2022/04/29 00:39:36;;;;;;;4.90;4.40;;;19.90;43.40;21.10;102022.00;;;;5006582;28;20160;-45
2022/04/29 00:42:17;;;;;;;5.80;5.20;;;19.90;43.80;21.10;102022.00;;;;5006038;28;20178;-45
2022/04/29 00:44:44;;;;;;;6.37;4.20;;;19.80;43.60;21.10;102030.00;;;;5006317;28;20632;-45
2022/04/29 00:47:13;;;;;;;5.67;4.43;;;19.90;44.30;21.10;102025.00;;;;5006064;28;20191;-46
2022/04/29 00:49:38;;;;;;;4.67;4.13;;;19.90;44.90;21.10;102024.00;;;;5005980;28;20645;-46
2022/04/29 00:52:12;;;;;;;5.47;4.37;;;19.90;44.30;21.00;102013.00;;;;5005987;28;20238;-48
2022/04/29 00:54:39;;;;;;;4.63;4.23;;;19.80;44.20;21.00;102012.00;;;;5005874;28;20190;-46
2022/04/29 00:57:08;;;;;;;5.97;4.20;;;19.80;44.30;21.00;102007.00;;;;4987837;28;20156;-46
2022/04/29 00:59:51;;;;;;;4.87;4.20;;;19.80;44.50;20.90;102007.00;;;;5006200;28;20164;-46
2022/04/29 01:02:16;;;;;;;5.47;4.83;;;19.80;44.60;20.90;101996.00;;;;4988957;28;20199;-46
2022/04/29 01:05:07;;;;;;;5.20;4.70;;;19.80;44.50;20.90;101996.00;;;;5005692;28;20210;-46
2022/04/29 01:07:34;;;;;;;4.90;4.40;;;19.70;44.60;20.90;101994.00;;;;5005947;28;20185;-45
2022/04/29 01:10:00;;;;;;;6.07;4.40;;;19.80;44.70;20.80;101994.00;;;;5005608;28;20198;-46
2022/04/29 01:12:27;;;;;;;5.43;4.60;;;19.70;44.60;20.80;101988.00;;;;5005406;28;20838;-46
2022/04/29 01:14:58;;;;;;;5.60;4.77;;;19.70;44.40;20.80;101981.00;;;;5004373;28;20207;-46
2022/04/29 01:17:25;;;;;;;4.53;4.10;;;19.70;44.50;20.80;101974.00;;;;5007426;28;20231;-46
2022/04/29 01:19:51;;;;;;;4.83;4.07;;;19.70;44.60;20.70;101984.00;;;;5010007;28;20243;-47
2022/04/29 01:22:16;;;;;;;4.30;3.90;;;19.60;44.60;20.70;101972.00;;;;5005355;28;20266;-47
2022/04/29 01:24:42;;;;;;;5.87;4.40;;;19.50;44.70;20.70;101972.00;;;;5005792;28;20172;-46
2022/04/29 01:27:13;;;;;;;4.53;4.00;;;19.60;44.80;20.60;101961.00;;;;5005593;28;20206;-47
2022/04/29 01:29:42;;;;;;;4.80;4.10;;;19.50;44.90;20.60;101968.00;;;;5005995;28;20214;-47
2022/04/29 01:32:08;;;;;;;4.60;4.17;;;19.50;44.80;20.60;101966.00;;;;5005874;28;20406;-47
2022/04/29 01:34:34;;;;;;;4.47;4.03;;;19.50;44.80;20.60;101976.00;;;;5005402;28;20195;-46
2022/04/29 01:37:00;;;;;;;4.47;4.07;;;19.50;44.80;20.50;101974.00;;;;5020336;28;20171;-46
2022/04/29 01:39:26;;;;;;;5.03;4.53;;;19.40;44.80;20.50;101964.00;;;;5005421;28;20178;-47
2022/04/29 01:41:52;;;;;;;5.03;4.60;;;19.40;44.80;20.50;101964.00;;;;5005683;28;20180;-46
2022/04/29 01:44:18;;;;;;;4.70;4.30;;;19.40;44.80;20.50;101960.00;;;;5005383;28;20210;-46
2022/04/29 01:46:43;;;;;;;5.53;4.33;;;19.40;44.70;20.50;101960.00;;;;5004871;28;20758;-45
2022/04/29 01:49:10;;;;;;;5.10;4.40;;;19.40;44.80;20.40;101967.00;;;;5005710;28;20175;-46
2022/04/29 01:51:35;;;;;;;4.60;4.20;;;19.30;44.60;20.40;101954.00;;;;5009526;28;20171;-46
2022/04/29 01:54:01;;;;;;;4.97;4.10;;;19.30;44.70;20.40;101948.00;;;;5009226;28;20241;-46
2022/04/29 01:56:32;;;;;;;5.43;4.17;;;19.20;44.60;20.40;101962.00;;;;5009100;28;20176;-46
2022/04/29 01:59:01;;;;;;;4.97;4.47;;;19.30;44.80;20.40;101963.00;;;;5009128;28;20523;-46
2022/04/29 02:01:27;;;;;;;5.00;4.37;;;19.20;44.70;20.30;101948.00;;;;5009187;28;20807;-46
2022/04/29 02:03:54;;;;;;;4.77;4.37;;;19.20;44.70;20.30;101941.00;;;;5009208;28;20278;-46
2022/04/29 02:06:21;;;;;;;5.17;4.57;;;19.20;44.70;20.30;101956.00;;;;5008540;28;20195;-46
2022/04/29 02:08:47;;;;;;;6.00;4.43;;;19.20;44.80;20.30;101950.00;;;;5008368;28;20160;-46
2022/04/29 02:11:13;;;;;;;4.73;4.23;;;19.20;44.80;20.20;101955.00;;;;5008510;28;20170;-46
2022/04/29 02:13:38;;;;;;;4.70;4.30;;;19.20;44.90;20.30;101956.00;;;;5007480;28;20191;-46
2022/04/29 02:16:04;;;;;;;5.00;4.57;;;19.20;44.90;20.20;101955.00;;;;5009328;28;20528;-46
2022/04/29 02:18:30;;;;;;;4.80;4.30;;;19.20;44.90;20.20;101956.00;;;;5013302;28;20174;-48
2022/04/29 02:20:56;;;;;;;4.60;4.20;;;19.20;45.00;20.20;101958.00;;;;5024378;28;20259;-46
2022/04/29 02:23:22;;;;;;;4.70;4.30;;;19.10;44.80;20.20;101957.00;;;;5020520;28;20191;-47
2022/04/29 02:25:47;;;;;;;5.10;4.70;;;19.10;45.00;20.20;101945.00;;;;5008736;28;20202;-46
2022/04/29 02:28:13;;;;;;;4.63;4.23;;;19.00;45.00;20.10;101946.00;;;;4999931;28;20180;-47
2022/04/29 02:30:40;;;;;;;5.20;4.70;;;19.00;45.00;20.10;101940.00;;;;4992936;28;20173;-49
2022/04/29 02:33:07;;;;;;;5.20;4.53;;;19.10;45.10;20.10;101956.00;;;;4988368;28;20788;-45
2022/04/29 02:35:33;;;;;;;5.73;4.67;;;19.00;45.00;20.10;101948.00;;;;4988763;28;20260;-46
2022/04/29 02:37:58;;;;;;;5.13;4.70;;;19.00;45.10;20.00;101940.00;;;;4987879;28;20256;-46
2022/04/29 02:40:24;;;;;;;5.00;4.50;;;19.00;45.00;20.00;101942.00;;;;4989166;28;20252;-46
2022/04/29 02:42:50;;;;;;;4.60;4.23;;;19.00;45.10;20.00;101933.00;;;;4989156;28;20247;-45
2022/04/29 02:45:16;;;;;;;4.80;4.07;;;19.00;45.00;20.00;101920.00;;;;4987892;28;20176;-47
2022/04/29 02:47:42;;;;;;;4.90;4.40;;;18.90;45.10;20.00;101932.00;;;;4989477;28;20176;-46
2022/04/29 02:50:08;;;;;;;4.87;4.47;;;18.90;45.10;19.90;101939.00;;;;4994844;28;20188;-49
2022/04/29 02:52:34;;;;;;;4.80;4.40;;;18.90;45.10;19.90;101938.00;;;;5006319;28;20175;-46
2022/04/29 02:55:00;;;;;;;5.27;4.60;;;18.90;45.10;19.90;101936.00;;;;5005813;28;20200;-46
2022/04/29 02:57:25;;;;;;;4.67;4.27;;;18.80;45.00;19.90;101936.00;;;;5005424;28;20187;-47
2022/04/29 02:59:51;;;;;;;4.73;4.33;;;18.90;45.10;19.80;101941.00;;;;4998527;28;20176;-44
2022/04/29 03:02:17;;;;;;;6.63;4.63;;;18.80;45.00;19.80;101935.00;;;;4997079;28;20268;-50
2022/04/29 03:04:43;;;;;;;4.97;4.50;;;18.80;45.10;19.80;101942.00;;;;4991107;28;20176;-45
2022/04/29 03:07:08;;;;;;;4.50;4.10;;;18.70;45.20;19.80;101933.00;;;;4988155;28;20247;-46
2022/04/29 03:09:34;;;;;;;5.00;4.33;;;18.70;45.20;19.70;101935.00;;;;4988076;28;20275;-46
2022/04/29 03:12:00;;;;;;;4.60;4.20;;;18.80;45.20;19.70;101938.00;;;;4987990;28;20172;-46
2022/04/29 03:14:26;;;;;;;5.13;4.50;;;18.70;45.20;19.70;101933.00;;;;4987277;28;20202;-45
2022/04/29 03:16:52;;;;;;;5.13;4.63;;;18.70;45.30;19.70;101936.00;;;;4987918;28;20183;-45
2022/04/29 03:19:17;;;;;;;5.43;4.30;;;18.70;45.20;19.60;101933.00;;;;4986922;28;20183;-45
2022/04/29 03:21:43;;;;;;;4.93;4.43;;;18.70;45.30;19.60;101937.00;;;;4987757;28;20166;-45
2022/04/29 03:24:09;;;;;;;5.30;4.30;;;18.70;45.20;19.60;101925.00;;;;4987255;28;20193;-45
2022/04/29 03:26:35;;;;;;;5.13;4.67;;;18.70;45.20;19.60;101918.00;;;;4987405;28;20587;-45
2022/04/29 03:29:02;;;;;;;8.33;4.63;;;18.70;45.30;19.60;101916.00;;;;4987839;28;20660;-46
2022/04/29 03:31:27;;;;;;;5.20;4.77;;;18.60;45.50;19.60;101921.00;;;;4987742;28;20160;-45
2022/04/29 03:33:53;;;;;;;4.73;4.33;;;18.60;45.50;19.60;101914.00;;;;4987322;28;20678;-47
2022/04/29 03:36:19;;;;;;;4.60;4.20;;;18.60;45.30;19.60;101925.00;;;;4987231;28;20181;-45
2022/04/29 03:38:44;;;;;;;5.30;4.33;;;18.70;45.30;19.50;101926.00;;;;4987995;28;20218;-45
2022/04/29 03:41:11;;;;;;;7.07;6.07;;;18.60;45.20;19.50;101917.00;;;;4987528;28;20175;-44
2022/04/29 03:43:36;;;;;;;6.27;5.47;;;18.60;45.30;19.50;101917.00;;;;4987406;28;20681;-48
2022/04/29 03:46:02;;;;;;;7.70;7.00;;;18.50;45.20;19.50;101921.00;;;;4987405;28;20196;-46
2022/04/29 03:49:35;;;;;;;7.37;6.10;;;18.40;45.40;19.50;101919.00;;;;4987459;28;20200;-46
2022/04/29 03:51:14;;;;;;;6.33;5.73;;;18.40;45.40;19.40;101912.00;;;;4987460;28;20180;-45
2022/04/29 03:53:39;;;;;;;7.07;6.37;;;18.40;45.40;19.40;101917.00;;;;4987095;28;20191;-46
2022/04/29 03:56:05;;;;;;;7.27;6.20;;;18.30;45.50;19.30;101911.00;;;;4986852;28;20644;-45
2022/04/29 03:58:31;;;;;;;6.00;5.40;;;18.30;45.50;19.30;101912.00;;;;4990276;28;20171;-46
2022/04/29 04:00:56;;;;;;;6.43;5.77;;;18.30;45.50;19.30;101908.00;;;;4999194;28;20197;-45
2022/04/29 04:03:22;;;;;;;6.83;5.67;;;18.30;45.50;19.30;101904.00;;;;4994017;28;20200;-46
2022/04/29 04:08:36;;;;;;;6.73;5.10;;;18.20;45.50;19.20;101903.00;;;;4994724;28;20191;-46
2022/04/29 04:11:02;;;;;;;8.17;6.23;;;18.20;45.70;19.20;101918.00;;;;4987094;28;20168;-47
2022/04/29 04:13:28;;;;;;;6.90;6.20;;;18.10;45.70;19.20;101910.00;;;;4986369;28;20198;-45
2022/04/29 04:15:53;;;;;;;6.73;6.00;;;18.10;45.70;19.20;101903.00;;;;4987076;28;20185;-47
2022/04/29 04:18:19;;;;;;;6.53;5.93;;;18.10;45.70;19.20;101911.00;;;;4986832;28;20227;-45
2022/04/29 04:20:48;;;;;;;7.37;6.67;;;18.00;45.60;19.20;101909.00;;;;4987102;28;20633;-46
2022/04/29 04:23:14;;;;;;;10.40;6.60;;;18.00;45.60;19.10;101909.00;;;;4986353;28;20230;-46
2022/04/29 04:25:40;;;;;;;7.13;6.43;;;18.00;45.70;19.10;101914.00;;;;4987054;28;20197;-46
2022/04/29 04:28:06;;;;;;;9.97;6.53;;;18.00;45.70;19.10;101905.00;;;;5005789;28;20284;-46
2022/04/29 04:30:32;;;;;;;7.97;6.53;;;17.90;45.50;19.10;101914.00;;;;5006709;28;20190;-46
2022/04/29 04:32:57;;;;;;;8.27;7.53;;;17.90;45.70;19.10;101915.00;;;;5021392;28;20199;-46
2022/04/29 04:35:23;;;;;;;8.07;7.27;;;17.80;45.80;19.00;101908.00;;;;5006253;28;20171;-45
2022/04/29 04:37:49;;;;;;;7.37;6.67;;;17.80;45.60;19.00;101919.00;;;;5006057;28;20323;-46
2022/04/29 04:40:15;;;;;;;8.47;7.20;;;17.80;45.90;19.00;101914.00;;;;5021458;28;20178;-45
2022/04/29 04:42:44;;;;;;;9.07;7.80;;;17.80;46.00;19.00;101912.00;;;;5005903;28;20537;-46
2022/04/29 04:45:10;;;;;;;7.70;6.90;;;17.80;45.80;19.00;101910.00;;;;5005723;28;20170;-45
2022/04/29 04:47:36;;;;;;;8.60;7.80;;;17.80;45.80;19.00;101907.00;;;;5020948;28;20193;-46
2022/04/29 04:50:01;;;;;;;8.50;7.57;;;17.70;45.90;19.00;101917.00;;;;5006243;28;20175;-46
2022/04/29 04:52:28;;;;;;;7.60;6.90;;;17.70;45.80;18.90;101909.00;;;;5005193;28;20196;-46
2022/04/29 04:54:53;;;;;;;8.77;7.87;;;17.60;46.10;18.90;101908.00;;;;5006152;28;20666;-46
2022/04/29 04:57:19;;;;;;;7.90;7.10;;;17.60;46.10;18.90;101923.00;;;;5007653;28;20200;-46
2022/04/29 04:59:45;;;;;;;7.90;7.10;;;17.50;46.20;18.90;101928.00;;;;5009298;28;20170;-46
2022/04/29 05:02:10;;;;;;;9.00;6.50;;;17.60;46.40;18.80;101915.00;;;;5005573;28;20603;-46
2022/04/29 05:04:36;;;;;;;10.50;7.50;;;17.60;46.40;18.80;101918.00;;;;5005093;28;20439;-46
2022/04/29 05:07:03;;;;;;;8.50;7.53;;;17.60;46.30;18.80;101913.00;;;;5005755;28;20201;-46
2022/04/29 05:09:28;;;;;;;8.27;7.33;;;17.60;46.30;18.80;101844.00;;;;5006359;28;20222;-46
2022/04/29 05:11:54;;;;;;;9.20;8.30;;;17.60;46.50;18.80;101912.00;;;;5005801;28;20169;-46
2022/04/29 05:14:20;;;;;;;7.60;6.90;;;17.60;46.50;18.80;101904.00;;;;5005095;28;20668;-46
2022/04/29 05:16:46;;;;;;;9.00;6.80;;;17.50;46.50;18.80;101908.00;;;;5005433;28;20172;-46
2022/04/29 05:19:11;;;;;;;7.73;6.97;;;17.50;46.50;18.70;101919.00;;;;5009043;28;20167;-45
2022/04/29 05:21:37;;;;;;;6.90;6.20;;;17.60;46.50;18.70;101914.00;;;;5011105;28;20457;-50
2022/04/29 05:24:03;;;;;;;5.70;5.20;;;17.60;46.40;18.60;101913.00;;;;5006838;28;20206;-49
2022/04/29 05:26:29;;;;;;;6.87;5.10;;;17.70;46.40;18.60;101915.00;;;;5009301;28;20199;-48
2022/04/29 05:28:55;;;;;;;5.07;4.57;;;17.70;46.10;18.60;101906.00;;;;5010552;28;20226;-48
2022/04/29 05:31:21;;;;;;;6.17;4.70;;;17.80;46.20;18.60;101912.00;;;;5009928;28;20165;-49
2022/04/29 05:33:46;;;;;;;5.13;4.50;;;17.70;46.00;18.60;101913.00;;;;5008293;28;20215;-48
2022/04/29 05:36:12;;;;;;;4.97;4.43;;;17.80;46.10;18.60;101918.00;;;;5008407;28;20176;-48
2022/04/29 05:44:08;;;;;;;4.97;4.47;;;17.80;46.10;18.60;101918.00;;;;5014710;28;20207;-50
2022/04/29 05:46:35;;;;;;;4.70;3.97;;;17.80;46.20;18.60;101916.00;;;;5021767;28;20202;-49
2022/04/29 05:49:04;;;;;;;4.90;4.20;;;17.80;46.20;18.60;101922.00;;;;5015775;28;20168;-49
2022/04/29 05:51:29;;;;;;;4.50;4.10;;;17.80;46.20;18.60;101914.00;;;;5008837;28;20187;-49
2022/04/29 05:53:55;;;;;;;4.50;3.80;;;17.80;46.20;18.60;101927.00;;;;5009044;28;20179;-49
2022/04/29 05:56:21;;;;;;;5.13;4.07;;;17.80;46.10;18.60;101916.00;;;;5008017;28;20203;-49
2022/04/29 05:58:46;;;;;;;3.93;3.40;;;17.80;46.20;18.60;101906.00;;;;5009191;28;20168;-49
2022/04/29 06:01:12;;;;;;;4.30;3.30;;;17.80;46.20;18.60;101909.00;;;;5008432;28;20192;-48
2022/04/29 06:03:38;;;;;;;3.80;3.40;;;17.70;46.10;18.60;101915.00;;;;5007603;28;20196;-49
2022/04/29 06:06:04;;;;;;;6.77;3.27;;;17.70;46.10;18.60;101911.00;;;;5008866;28;20542;-49
2022/04/29 06:08:30;;;;;;;4.30;3.30;;;17.80;46.20;18.60;101911.00;;;;5008462;28;20199;-48
2022/04/29 06:10:55;;;;;;;5.23;3.73;;;17.80;46.20;18.60;101911.00;;;;5008696;28;20729;-48
2022/04/29 06:13:21;;;;;;;3.50;3.20;;;17.80;46.20;18.60;101907.00;;;;5008520;28;20568;-48
2022/04/29 06:15:47;;;;;;;3.80;3.40;;;17.80;46.20;18.60;101911.00;;;;5023751;28;20182;-49
2022/04/29 06:18:12;;;;;;;3.73;3.30;;;17.80;46.20;18.60;101915.00;;;;5008609;28;20263;-48
2022/04/29 06:20:38;;;;;;;6.07;3.43;;;17.70;46.20;18.60;101912.00;;;;5008512;28;20192;-49
2022/04/29 06:23:04;;;;;;;5.07;3.30;;;17.80;46.30;18.60;101914.00;;;;5007831;28;20792;-48
2022/04/29 06:25:30;;;;;;;3.60;3.10;;;17.70;46.30;18.60;101913.00;;;;5014002;28;20364;-49
2022/04/29 06:27:55;;;;;;;4.33;3.53;;;17.70;46.30;18.60;101909.00;;;;5015466;28;20158;-49
2022/04/29 06:30:21;;;;;;;3.60;3.30;;;17.70;46.40;18.60;101877.00;;;;5008793;28;20172;-49
2022/04/29 06:32:47;;;;;;;3.10;2.83;;;17.70;46.40;18.60;101914.00;;;;5007891;28;20856;-48
2022/04/29 06:35:17;;;;;;;3.30;3.00;;;17.70;46.40;18.60;101917.00;;;;5007267;28;20170;-48
2022/04/29 06:37:43;;;;;;;3.00;2.80;;;17.80;46.50;18.60;101919.00;;;;5008160;28;20157;-48
2022/04/29 06:40:10;;;;;;;3.77;2.90;;;17.70;46.40;18.60;101931.00;;;;5009000;28;20275;-48
2022/04/29 06:42:45;;;;;;;3.50;3.17;;;17.70;46.50;18.60;101926.00;;;;5008742;28;20175;-48
2022/04/29 06:45:12;;;;;;;3.13;2.83;;;17.70;46.50;18.60;101931.00;;;;5006795;28;20171;-48
2022/04/29 06:47:37;;;;;;;3.30;3.00;;;17.70;46.50;18.60;101938.00;;;;5006831;28;20325;-48
2022/04/29 06:50:03;;;;;;;4.83;2.80;;;17.70;46.50;18.60;101945.00;;;;5008252;28;20806;-48
2022/04/29 06:52:29;;;;;;;5.13;2.83;;;17.80;46.80;18.60;101946.00;;;;5007772;28;20212;-49
2022/04/29 06:54:55;;;;;;;2.80;2.60;;;17.80;46.80;18.60;101937.00;;;;5007858;28;20168;-49
2022/04/29 06:57:21;;;;;;;3.10;2.80;;;17.70;46.70;18.60;101940.00;;;;5007690;28;20245;-49
2022/04/29 06:59:49;;;;;;;4.37;2.67;;;17.70;46.80;18.60;101938.00;;;;5008207;28;20149;-48
2022/04/29 07:02:16;;;;;;;5.63;3.07;;;17.80;47.10;18.60;101940.00;;;;5007515;28;20697;-49
2022/04/29 07:04:42;;;;;;;4.73;2.80;;;17.70;47.00;18.60;101934.00;;;;5007370;28;20199;-49
2022/04/29 07:07:11;;;;;;;6.80;3.20;;;17.80;47.10;18.40;101935.00;;;;4845711;28;20321;-50
2022/04/29 07:09:39;;;;;;;5.40;3.00;;;17.80;47.20;18.60;101941.00;;;;5006187;28;20635;-51
2022/04/29 07:12:07;;;;;;;5.30;3.30;;;17.80;47.10;18.60;101940.00;;;;5013877;28;20166;-49
2022/04/29 07:14:33;;;;;;;3.27;2.80;;;17.70;47.40;18.60;101944.00;;;;5011129;28;20187;-50
2022/04/29 07:16:59;;;;;;;3.40;2.70;;;17.70;47.30;18.60;101943.00;;;;5014919;28;20178;-49
2022/04/29 07:19:25;;;;;;;3.90;3.07;;;17.70;47.50;18.70;101939.00;;;;5013525;28;20176;-50
2022/04/29 07:21:51;;;;;;;2.87;2.60;;;17.70;47.40;18.70;101937.00;;;;5010191;28;20188;-48
2022/04/29 07:24:18;;;;;;;3.30;3.00;;;17.70;47.50;18.60;101937.00;;;;5011204;28;20196;-49
2022/04/29 07:26:44;;;;;;;3.33;3.03;;;17.70;47.40;18.60;101947.00;;;;5011736;28;20645;-49
2022/04/29 07:29:10;;;;;;;4.50;2.83;;;17.70;47.70;18.60;101938.00;;;;5009803;28;20637;-49
2022/04/29 07:31:36;;;;;;;2.93;2.63;;;17.80;47.80;18.70;101861.00;;;;5009642;28;20235;-49
2022/04/29 07:34:01;;;;;;;4.03;2.87;;;17.80;48.00;18.70;101936.00;;;;5009863;28;20696;-48
2022/04/29 07:41:56;;;;;;;3.87;3.00;;;17.80;48.20;18.70;101932.00;;;;5007621;28;20191;-49
2022/04/29 07:44:21;;;;;;;4.10;2.63;;;17.70;48.30;18.70;101924.00;;;;5007703;28;20193;-49
2022/04/29 07:46:48;;;;;;;3.40;2.80;;;17.80;48.40;18.70;101926.00;;;;5006019;28;20405;-50
2022/04/29 07:49:14;;;;;;;2.67;2.47;;;17.80;48.40;18.70;101924.00;;;;5005913;28;20171;-50
2022/04/29 07:51:40;;;;;;;11.57;3.67;;;17.80;48.40;18.70;101934.00;;;;5006485;28;20246;-50
2022/04/29 07:54:06;;;;;;;7.40;3.30;;;17.80;49.50;18.70;101918.00;;;;5008806;28;20212;-49
2022/04/29 07:56:31;;;;;;;7.37;3.37;;;17.80;50.00;18.70;101930.00;;;;5007908;28;20203;-49
2022/04/29 07:58:58;;;;;;;3.30;3.00;;;17.80;50.00;18.70;101918.00;;;;5006043;28;20214;-49
2022/04/29 08:01:25;;;;;;;3.97;2.70;;;17.80;49.90;18.70;101921.00;;;;5008190;28;20788;-49
2022/04/29 08:03:53;;;;;;;4.53;3.10;;;17.80;49.90;18.70;101924.00;;;;5007986;28;20196;-49
2022/04/29 08:06:19;;;;;;;4.73;2.80;;;17.80;49.90;18.70;101926.00;;;;5005806;28;20946;-49
2022/04/29 08:08:45;;;;;;;4.87;2.90;;;17.80;49.90;18.80;101929.00;;;;4936259;28;20219;-49
2022/04/29 08:11:11;;;;;;;5.47;2.77;;;17.80;49.80;18.80;101932.00;;;;5005951;28;20732;-49
2022/04/29 08:13:37;;;;;;;3.37;2.90;;;17.90;49.90;18.80;101928.00;;;;5005752;28;20693;-51
2022/04/29 08:16:04;;;;;;;4.00;2.80;;;17.90;49.90;18.80;101926.00;;;;5006414;28;20259;-49
2022/04/29 08:18:29;;;;;;;4.87;3.00;;;17.80;49.80;18.60;101922.00;;;;5007190;28;20770;-49
2022/04/29 08:20:56;;;;;;;4.20;2.53;;;17.80;49.80;18.80;101919.00;;;;5006047;28;20181;-48
2022/04/29 08:23:22;;;;;;;4.67;2.87;;;17.80;49.70;18.80;101924.00;;;;5005945;28;20226;-48
2022/04/29 08:25:47;;;;;;;3.50;2.70;;;17.80;49.70;18.80;101932.00;;;;5005008;28;20205;-49
2022/04/29 08:28:13;;;;;;;4.37;2.90;;;17.90;49.80;18.80;101932.00;;;;5006238;28;20247;-48
2022/04/29 08:30:39;;;;;;;5.57;3.00;;;17.90;50.00;18.80;101930.00;;;;5005931;28;20189;-48
2022/04/29 08:33:05;;;;;;;3.53;2.70;;;17.90;50.80;18.80;101929.00;;;;5005517;28;20216;-48
2022/04/29 08:35:31;;;;;;;6.43;3.03;;;17.90;50.20;18.80;101934.00;;;;5006174;28;20655;-47
2022/04/29 08:37:57;;;;;;;4.63;3.00;;;17.90;50.10;18.80;101926.00;;;;5005806;28;20187;-47
2022/04/29 08:40:23;;;;;;;4.03;2.70;;;17.90;50.10;18.80;101929.00;;;;5006283;28;20172;-48
2022/04/29 08:42:49;;;;;;;5.87;2.90;;;17.90;50.00;18.80;101926.00;;;;5004131;28;20657;-48
2022/04/29 08:45:16;;;;;;;4.20;3.20;;;17.90;50.00;18.80;101918.00;;;;5016492;28;20175;-50
2022/04/29 08:47:45;;;;;;;3.90;2.70;;;17.90;50.10;18.90;101926.00;;;;5025276;28;20194;-48
2022/04/29 08:50:12;;;;;;;5.57;3.10;;;17.90;50.10;18.80;101918.00;;;;5020808;28;20173;-49
2022/04/29 08:52:38;;;;;;;4.83;2.87;;;17.90;50.00;18.90;101923.00;;;;5016857;28;20195;-49
2022/04/29 09:00:38;;;;;;;4.03;2.70;;;17.90;50.00;18.90;101919.00;;;;5005280;28;20179;-48
2022/04/29 09:03:06;;;;;;;4.60;2.93;;;17.90;49.90;18.90;101922.00;;;;5004328;28;20735;-49
2022/04/29 09:05:32;;;;;;;4.37;2.87;;;17.90;50.00;18.90;101920.00;;;;5004357;28;20172;-48
2022/04/29 09:08:00;;;;;;;3.60;2.80;;;17.90;50.60;18.70;101914.00;;;;4934846;28;20247;-48
2022/04/29 09:10:36;;;;;;;3.60;2.60;;;17.90;50.00;18.90;101917.00;;;;5025661;28;20594;-48
2022/04/29 09:13:13;;;;;;;3.77;2.70;;;17.90;49.90;18.90;101914.00;;;;5024672;28;20195;-49
2022/04/29 09:15:57;;;;;;;3.53;3.00;;;18.00;50.10;18.90;101919.00;;;;5024853;28;20152;-50
2022/04/29 09:18:39;;;;;;;4.20;3.00;;;17.90;50.00;18.90;101894.00;;;;5016729;28;20166;-48
2022/04/29 09:21:19;;;;;;;3.37;2.87;;;18.00;50.00;18.90;101912.00;;;;5003868;28;20172;-49
2022/04/29 09:23:56;;;;;;;3.83;2.87;;;17.90;50.00;18.90;101915.00;;;;5006648;28;20245;-48
2022/04/29 09:26:35;;;;;;;3.33;2.80;;;18.00;50.00;18.90;101923.00;;;;5006122;28;20823;-48
2022/04/29 09:29:15;;;;;;;2.97;2.60;;;18.00;50.00;19.00;101921.00;;;;5008781;28;20166;-48
2022/04/29 09:31:55;;;;;;;4.50;2.90;;;18.00;50.00;19.00;101915.00;;;;5005572;28;20233;-48
2022/04/29 09:34:44;;;;;;;3.83;2.90;;;18.00;50.00;19.00;101915.00;;;;5004167;28;20198;-48
2022/04/29 09:37:17;;;;;;;3.53;2.80;;;18.00;50.00;19.00;101910.00;;;;5005603;28;20167;-48
2022/04/29 09:40:10;;;;;;;3.07;2.80;;;18.00;50.00;19.00;101914.00;;;;5005555;28;20160;-48
2022/04/29 09:42:42;;;;;;;2.97;2.70;;;18.00;50.00;19.00;101907.00;;;;5002968;28;20781;-48
2022/04/29 09:45:14;;;;;;;2.90;2.60;;;18.00;50.70;19.00;101914.00;;;;5004149;28;20183;-51
2022/04/29 09:47:40;;;;;;;3.50;2.80;;;18.10;50.10;19.00;101901.00;;;;5004452;28;20662;-48
2022/04/29 09:50:06;;;;;;;2.90;2.53;;;18.10;50.10;19.00;101900.00;;;;5004743;28;20176;-53
2022/04/29 09:52:43;;;;;;;2.73;2.53;;;18.10;50.10;19.10;101894.00;;;;5003715;28;20179;-49
2022/04/29 09:55:19;;;;;;;3.07;2.57;;;18.10;50.10;19.10;101909.00;;;;5005644;28;20175;-48
2022/04/29 09:57:48;;;;;;;3.23;2.50;;;18.10;50.10;19.10;101907.00;;;;5008762;28;20261;-51
2022/04/29 10:00:15;;;;;;;2.70;2.40;;;18.10;50.10;19.10;101897.00;;;;5009060;28;20203;-50
2022/04/29 10:02:41;;;;;;;2.83;2.50;;;18.10;50.20;19.10;101901.00;;;;5007994;28;20222;-50
2022/04/29 10:05:07;;;;;;;3.10;2.60;;;18.10;50.20;19.10;101895.00;;;;5009617;28;20597;-50
2022/04/29 10:07:33;;;;;;;2.80;2.50;;;18.20;50.30;19.10;101887.00;;;;5006586;28;20279;-49
2022/04/29 10:09:58;;;;;;;2.90;2.70;;;18.10;50.20;19.20;101895.00;;;;5005364;28;20271;-48
2022/04/29 10:12:26;;;;;;;3.50;2.73;;;18.20;50.30;19.20;101898.00;;;;5003446;28;20477;-49
2022/04/29 10:14:58;;;;;;;2.97;2.67;;;18.20;50.30;19.20;101892.00;;;;4998834;28;20184;-49
2022/04/29 10:23:09;;;;;;;3.30;3.00;;;18.20;50.40;19.20;101889.00;;;;4987049;28;20953;-49
2022/04/29 10:25:36;;;;;;;2.83;2.63;;;18.20;50.50;19.20;101893.00;;;;4988563;28;20183;-49
2022/04/29 10:28:02;;;;;;;5.40;2.80;;;18.20;50.50;19.20;101896.00;;;;4987081;28;20192;-50
2022/04/29 10:30:34;;;;;;;3.67;2.90;;;18.30;50.80;19.20;101899.00;;;;4988948;28;20621;-49
2022/04/29 10:33:12;;;;;;;3.20;2.80;;;18.20;50.80;19.20;101892.00;;;;4988376;28;20192;-48
2022/04/29 10:35:45;;;;;;;3.93;2.90;;;18.20;50.80;19.20;101890.00;;;;4993685;28;20180;-48
2022/04/29 10:38:34;;;;;;;4.07;2.97;;;18.30;51.20;19.20;101897.00;;;;5008666;28;20359;-49
2022/04/29 10:41:21;;;;;;;6.83;2.70;;;18.30;51.30;19.30;101895.00;;;;5008069;28;20745;-48
2022/04/29 10:43:49;;;;;;;4.53;2.80;;;18.30;51.20;19.30;101891.00;;;;5006323;28;20255;-48
2022/04/29 10:46:28;;;;;;;4.00;2.70;;;18.30;51.20;19.30;101880.00;;;;5007457;28;20283;-48
2022/04/29 10:48:54;;;;;;;3.03;2.73;;;18.40;51.50;19.30;101885.00;;;;5008745;28;20169;-48
2022/04/29 10:51:25;;;;;;;4.60;2.63;;;18.40;51.50;19.30;101883.00;;;;5007883;28;20878;-48
2022/04/29 10:53:56;;;;;;;3.87;2.60;;;18.40;51.60;19.40;101893.00;;;;5009008;28;20196;-47
2022/04/29 10:56:31;;;;;;;3.07;2.40;;;18.50;51.40;19.40;101881.00;;;;5011239;28;20166;-48
2022/04/29 10:59:14;;;;;;;3.10;2.80;;;18.50;51.20;19.50;101891.00;;;;5008204;28;20610;-49
2022/04/29 11:02:06;;;;;;;4.23;2.63;;;18.60;51.20;19.50;101878.00;;;;5008076;28;20197;-49
2022/04/29 11:04:32;;;;;;;3.00;2.40;;;18.70;51.20;19.50;101875.00;;;;5006665;28;20558;-48
2022/04/29 11:06:57;;;;;;;2.83;2.50;;;18.70;51.00;19.60;101876.00;;;;5007513;28;20281;-47
2022/04/29 11:09:30;;;;;;;3.20;2.50;;;18.70;51.00;19.60;101875.00;;;;5006580;28;20242;-48
2022/04/29 11:11:58;;;;;;;2.80;2.60;;;18.70;51.00;19.60;101873.00;;;;5007666;28;20173;-48
2022/04/29 11:14:23;;;;;;;3.00;2.70;;;18.80;51.00;19.70;101870.00;;;;5020660;28;20199;-50